Time;durP1;ratioP1;P1;durP2;ratioP2;P2;SDS_P1;SDS_P2;PMS_P1;PMS_P2;Temp;Humidity;BMP_temperature;BMP_pressure;BME280_temperature;BME280_humidity;BME280_pressure;Samples;Min_cycle;Max_cycle;Signal;HPM_P1;HPM_P2
2022/11/10 00:02:23;;;;;;;;;;;21.60;52.70;;;;;;5015261;28;19958;-73
2022/11/10 00:04:49;;;;;;;;;;;21.60;52.70;;;;;;5028114;28;19923;-73
2022/11/10 00:07:14;;;;;;;;;;;21.60;52.70;;;;;;5040638;28;19920;-73
2022/11/10 00:09:40;;;;;;;;;;;21.60;52.70;;;;;;5043996;28;19913;-73
2022/11/10 00:12:05;;;;;;;;;;;21.60;52.70;;;;;;5046769;28;19917;-72
2022/11/10 00:17:15;;;;;;;;;;;21.60;52.70;;;;;;5029959;28;19963;-73
2022/11/10 00:19:40;;;;;;;;;;;21.60;52.70;;;;;;5047940;28;19954;-73
2022/11/10 00:22:06;;;;;;;;;;;21.50;52.80;;;;;;5031154;28;19924;-72
2022/11/10 00:24:31;;;;;;;;;;;21.50;52.80;;;;;;5029445;28;19919;-72
2022/11/10 00:26:57;;;;;;;;;;;21.50;52.80;;;;;;5044645;28;19913;-73
2022/11/10 00:29:22;;;;;;;;;;;21.60;52.90;;;;;;5023277;28;19934;-73
2022/11/10 00:31:47;;;;;;;;;;;21.50;52.90;;;;;;5028203;28;19920;-74
2022/11/10 00:34:14;;;;;;;;;;;21.40;52.90;;;;;;5028505;28;19913;-72
2022/11/10 00:36:39;;;;;;;;;;;21.40;52.90;;;;;;5008244;28;19933;-73
2022/11/10 00:39:05;;;;;;;;;;;21.40;52.80;;;;;;5024975;28;19917;-72
2022/11/10 00:41:30;;;;;;;;;;;21.40;52.90;;;;;;5029875;28;19913;-73
2022/11/10 00:43:56;;;;;;;;;;;21.40;53.00;;;;;;5027138;28;19917;-71
2022/11/10 00:46:21;;;;;;;;;;;21.40;53.10;;;;;;5029580;28;19913;-72
2022/11/10 00:48:47;;;;;;;;;;;21.40;53.00;;;;;;5043625;28;19920;-73
2022/11/10 00:51:20;;;;;;;;;;;21.30;53.00;;;;;;5024154;28;19947;-72
2022/11/10 00:53:46;;;;;;;;;;;21.30;52.90;;;;;;5026039;28;20355;-73
2022/11/10 00:56:11;;;;;;;;;;;21.30;53.10;;;;;;5043857;28;19948;-73
2022/11/10 00:58:36;;;;;;;;;;;21.30;53.00;;;;;;5042911;28;20000;-73
2022/11/10 01:01:02;;;;;;;;;;;21.30;52.90;;;;;;5043244;28;19948;-73
2022/11/10 01:03:28;;;;;;;;;;;21.30;53.00;;;;;;5025480;28;20989;-73
2022/11/10 01:05:53;;;;;;;;;;;21.20;53.10;;;;;;5006333;28;19916;-73
2022/11/10 01:08:18;;;;;;;;;;;21.20;53.00;;;;;;5029967;28;19916;-73
2022/11/10 01:10:44;;;;;;;;;;;21.20;53.10;;;;;;5044315;28;19952;-73
2022/11/10 01:13:09;;;;;;;;;;;21.20;53.20;;;;;;5042439;28;19920;-73
2022/11/10 01:15:41;;;;;;;;;;;21.20;53.30;;;;;;5026562;28;19921;-73
2022/11/10 01:18:06;;;;;;;;;;;21.10;53.30;;;;;;5026448;28;19913;-73
2022/11/10 01:20:32;;;;;;;;;;;21.10;53.30;;;;;;5041296;28;19967;-73
2022/11/10 01:22:58;;;;;;;;;;;21.10;53.30;;;;;;5044715;28;19917;-73
2022/11/10 01:25:23;;;;;;;;;;;21.10;53.30;;;;;;5043781;28;19919;-73
2022/11/10 01:27:49;;;;;;;;;;;21.10;53.20;;;;;;5040669;28;19932;-73
2022/11/10 01:30:15;;;;;;;;;;;21.10;53.30;;;;;;5024145;28;19967;-73
2022/11/10 01:32:40;;;;;;;;;;;21.10;53.20;;;;;;5043391;28;19932;-72
2022/11/10 01:35:06;;;;;;;;;;;21.10;53.30;;;;;;5042537;28;20368;-73
2022/11/10 01:37:31;;;;;;;;;;;21.10;53.30;;;;;;5041870;28;19929;-73
2022/11/10 01:39:57;;;;;;;;;;;21.10;53.30;;;;;;5041442;28;19912;-72
2022/11/10 01:42:23;;;;;;;;;;;21.00;53.30;;;;;;5045260;28;20369;-73
2022/11/10 01:45:07;;;;;;;;;;;21.00;53.30;;;;;;5028997;28;19921;-73
2022/11/10 01:47:32;;;;;;;;;;;21.10;53.40;;;;;;5042352;28;20007;-73
2022/11/10 01:49:58;;;;;;;;;;;21.00;53.30;;;;;;5042019;28;20019;-72
2022/11/10 01:52:23;;;;;;;;;;;21.00;53.40;;;;;;5043574;28;19919;-73
2022/11/10 01:54:49;;;;;;;;;;;21.00;53.40;;;;;;5027167;28;19975;-73
2022/11/10 01:57:14;;;;;;;;;;;21.00;53.40;;;;;;5032579;28;19924;-74
2022/11/10 01:59:43;;;;;;;;;;;21.00;53.50;;;;;;5043983;28;19921;-73
2022/11/10 02:02:18;;;;;;;;;;;21.00;53.50;;;;;;5027199;28;20303;-73
2022/11/10 02:04:43;;;;;;;;;;;21.00;53.40;;;;;;5028912;28;19917;-74
2022/11/10 02:07:08;;;;;;;;;;;21.00;53.30;;;;;;5042061;28;19919;-72
2022/11/10 02:09:34;;;;;;;;;;;21.00;53.30;;;;;;5027873;28;20015;-73
2022/11/10 02:11:59;;;;;;;;;;;21.00;53.30;;;;;;5043214;28;19917;-73
2022/11/10 02:14:25;;;;;;;;;;;21.00;53.20;;;;;;5042421;28;19921;-73
2022/11/10 02:16:50;;;;;;;;;;;21.00;53.20;;;;;;5025393;28;19913;-72
2022/11/10 02:19:17;;;;;;;;;;;21.00;53.20;;;;;;5025123;28;19919;-73
2022/11/10 02:21:42;;;;;;;;;;;21.00;53.20;;;;;;5024139;28;19931;-73
2022/11/10 02:24:07;;;;;;;;;;;21.00;53.00;;;;;;5041316;28;19922;-73
2022/11/10 02:26:33;;;;;;;;;;;21.10;53.00;;;;;;5020296;28;19956;-73
2022/11/10 02:28:58;;;;;;;;;;;21.10;52.90;;;;;;5040835;28;19925;-73
2022/11/10 02:31:24;;;;;;;;;;;21.20;52.80;;;;;;5027269;28;19912;-72
2022/11/10 02:33:49;;;;;;;;;;;21.20;52.60;;;;;;5028778;28;19925;-74
2022/11/10 02:36:15;;;;;;;;;;;21.30;52.40;;;;;;5042799;28;19987;-73
2022/11/10 02:38:40;;;;;;;;;;;21.40;52.30;;;;;;5043960;28;20060;-73
2022/11/10 02:41:05;;;;;;;;;;;21.50;52.10;;;;;;5027635;28;19920;-72
2022/11/10 02:43:31;;;;;;;;;;;21.60;52.00;;;;;;5039315;28;19917;-73
2022/11/10 02:45:56;;;;;;;;;;;21.60;51.70;;;;;;5029213;28;20436;-73
2022/11/10 02:48:22;;;;;;;;;;;21.70;51.50;;;;;;5025294;28;19920;-73
2022/11/10 02:50:47;;;;;;;;;;;21.80;51.40;;;;;;5023380;28;20388;-73
2022/11/10 02:53:13;;;;;;;;;;;21.80;51.20;;;;;;5021687;28;19921;-73
2022/11/10 02:55:38;;;;;;;;;;;21.90;51.10;;;;;;5041100;28;19992;-73
2022/11/10 02:58:04;;;;;;;;;;;21.90;51.00;;;;;;5022530;28;19913;-73
2022/11/10 03:00:29;;;;;;;;;;;22.00;51.10;;;;;;5021431;28;20467;-74
2022/11/10 03:03:00;;;;;;;;;;;22.00;51.00;;;;;;5044766;28;20021;-73
2022/11/10 03:05:25;;;;;;;;;;;21.90;50.90;;;;;;5047380;28;19912;-73
2022/11/10 03:07:51;;;;;;;;;;;22.00;51.00;;;;;;5047776;28;19920;-72
2022/11/10 03:10:17;;;;;;;;;;;22.00;51.00;;;;;;5030646;28;19920;-73
2022/11/10 03:12:42;;;;;;;;;;;21.90;51.00;;;;;;5017261;28;19913;-73
2022/11/10 03:15:08;;;;;;;;;;;21.90;51.10;;;;;;5028617;28;20686;-73
2022/11/10 03:17:33;;;;;;;;;;;21.80;51.10;;;;;;5030373;28;20402;-74
2022/11/10 03:19:59;;;;;;;;;;;21.80;51.10;;;;;;5048128;28;20231;-73
2022/11/10 03:22:24;;;;;;;;;;;21.80;51.10;;;;;;5030789;28;19912;-73
2022/11/10 03:24:50;;;;;;;;;;;21.80;51.20;;;;;;5044174;28;19921;-73
2022/11/10 03:27:15;;;;;;;;;;;21.70;51.20;;;;;;5041832;28;19956;-72
2022/11/10 03:29:40;;;;;;;;;;;21.70;51.20;;;;;;5028819;28;19913;-73
2022/11/10 03:32:06;;;;;;;;;;;21.70;51.20;;;;;;5047642;28;19919;-73
2022/11/10 03:34:31;;;;;;;;;;;21.70;51.20;;;;;;5030910;28;19940;-72
2022/11/10 03:36:57;;;;;;;;;;;21.70;51.20;;;;;;5042664;28;19970;-72
2022/11/10 03:39:23;;;;;;;;;;;21.70;51.20;;;;;;5027294;28;19927;-72
2022/11/10 03:41:48;;;;;;;;;;;21.70;51.40;;;;;;5024752;28;19917;-73
2022/11/10 03:44:14;;;;;;;;;;;21.60;51.40;;;;;;5045914;28;20006;-73
2022/11/10 03:46:39;;;;;;;;;;;21.60;51.50;;;;;;5046473;28;19967;-74
2022/11/10 03:49:04;;;;;;;;;;;21.50;51.50;;;;;;5046890;28;19978;-74
2022/11/10 03:51:30;;;;;;;;;;;21.50;51.60;;;;;;5041962;28;19927;-74
2022/11/10 03:53:55;;;;;;;;;;;21.50;51.70;;;;;;5039554;28;19984;-73
2022/11/10 03:56:21;;;;;;;;;;;21.40;51.60;;;;;;5044866;28;20416;-73
2022/11/10 03:58:46;;;;;;;;;;;21.40;51.70;;;;;;5030731;28;20440;-73
2022/11/10 04:01:12;;;;;;;;;;;21.40;51.70;;;;;;5031823;28;20270;-73
2022/11/10 04:03:37;;;;;;;;;;;21.40;51.70;;;;;;5031817;28;19952;-74
2022/11/10 04:08:59;;;;;;;;;;;21.40;51.60;;;;;;5039720;28;19924;-73
2022/11/10 04:16:53;;;;;;;;;;;21.50;51.50;;;;;;5042176;28;19939;-73
2022/11/10 04:19:18;;;;;;;;;;;21.50;51.40;;;;;;5012008;28;19924;-73
2022/11/10 04:21:44;;;;;;;;;;;21.60;51.40;;;;;;5028276;28;20052;-73
2022/11/10 04:24:09;;;;;;;;;;;21.60;51.40;;;;;;5043095;28;19917;-72
2022/11/10 04:26:39;;;;;;;;;;;21.70;51.30;;;;;;5030435;28;19928;-74
2022/11/10 04:29:05;;;;;;;;;;;21.60;51.20;;;;;;5044935;28;19916;-73
2022/11/10 04:31:31;;;;;;;;;;;21.60;51.10;;;;;;5020891;28;19913;-73
2022/11/10 04:33:57;;;;;;;;;;;21.60;51.10;;;;;;5027284;28;20295;-73
2022/11/10 04:36:23;;;;;;;;;;;21.60;51.10;;;;;;5043513;28;19921;-73
2022/11/10 04:38:49;;;;;;;;;;;21.60;51.10;;;;;;5007875;28;19925;-73
2022/11/10 04:41:14;;;;;;;;;;;21.60;51.70;;;;;;5042949;28;19912;-73
2022/11/10 04:43:40;;;;;;;;;;;21.60;51.10;;;;;;5025608;28;20391;-74
2022/11/10 04:46:06;;;;;;;;;;;21.60;51.10;;;;;;5028505;28;19912;-72
2022/11/10 04:48:31;;;;;;;;;;;21.60;51.10;;;;;;5043419;28;19924;-73
2022/11/10 04:51:01;;;;;;;;;;;21.60;51.10;;;;;;5026951;28;19921;-74
2022/11/10 04:53:27;;;;;;;;;;;21.60;51.10;;;;;;5029673;28;20380;-72
2022/11/10 04:55:52;;;;;;;;;;;21.60;51.10;;;;;;5042149;28;20006;-73
2022/11/10 04:58:17;;;;;;;;;;;21.50;51.20;;;;;;5027796;28;20375;-73
2022/11/10 05:00:43;;;;;;;;;;;21.50;51.30;;;;;;5046718;28;20051;-73
2022/11/10 05:03:09;;;;;;;;;;;21.40;51.40;;;;;;5042855;28;19916;-73
2022/11/10 05:05:34;;;;;;;;;;;21.40;51.40;;;;;;5041129;28;19917;-73
2022/11/10 05:08:00;;;;;;;;;;;21.40;51.40;;;;;;5010583;28;19931;-72
2022/11/10 05:10:25;;;;;;;;;;;21.40;51.50;;;;;;5026955;28;19948;-73
2022/11/10 05:12:57;;;;;;;;;;;21.40;51.50;;;;;;5045986;28;19921;-73
2022/11/10 05:15:22;;;;;;;;;;;21.40;51.40;;;;;;5011117;28;19913;-73
2022/11/10 05:17:48;;;;;;;;;;;21.50;51.30;;;;;;5025125;28;19920;-73
2022/11/10 05:20:14;;;;;;;;;;;21.50;51.30;;;;;;5027337;28;19948;-72
2022/11/10 05:22:42;;;;;;;;;;;21.50;51.10;;;;;;5024353;28;20006;-73
2022/11/10 05:25:08;;;;;;;;;;;21.50;51.00;;;;;;5028054;28;19916;-73
2022/11/10 05:27:33;;;;;;;;;;;21.50;51.00;;;;;;5044802;28;19931;-73
2022/11/10 05:29:58;;;;;;;;;;;21.50;51.10;;;;;;5043933;28;19916;-73
2022/11/10 05:32:24;;;;;;;;;;;21.50;51.20;;;;;;5046623;28;19913;-73
2022/11/10 05:34:49;;;;;;;;;;;21.50;51.20;;;;;;5028528;28;19920;-73
2022/11/10 05:37:15;;;;;;;;;;;21.40;51.20;;;;;;5018986;28;19960;-74
2022/11/10 05:39:40;;;;;;;;;;;21.40;51.20;;;;;;5028134;28;19966;-74
2022/11/10 05:42:06;;;;;;;;;;;21.40;51.40;;;;;;5047416;28;20403;-73
2022/11/10 05:44:31;;;;;;;;;;;21.40;51.50;;;;;;5043883;28;20388;-73
2022/11/10 05:46:56;;;;;;;;;;;21.30;51.50;;;;;;5042514;28;19967;-73
2022/11/10 05:49:22;;;;;;;;;;;21.30;51.50;;;;;;5026726;28;19925;-73
2022/11/10 05:51:47;;;;;;;;;;;21.30;51.50;;;;;;5044069;28;20008;-74
2022/11/10 05:54:13;;;;;;;;;;;21.30;51.40;;;;;;5040919;28;19952;-72
2022/11/10 05:56:38;;;;;;;;;;;21.30;51.40;;;;;;5043870;28;19917;-72
2022/11/10 05:59:04;;;;;;;;;;;21.30;51.30;;;;;;5029454;28;19917;-73
2022/11/10 06:01:29;;;;;;;;;;;21.30;51.30;;;;;;5029169;28;19932;-73
2022/11/10 06:03:55;;;;;;;;;;;21.30;51.30;;;;;;5047301;28;19999;-73
2022/11/10 06:06:21;;;;;;;;;;;21.30;51.30;;;;;;5040689;28;20376;-73
2022/11/10 06:08:47;;;;;;;;;;;21.30;51.40;;;;;;5047454;28;20331;-73
2022/11/10 06:11:12;;;;;;;;;;;21.30;51.40;;;;;;5027621;28;19913;-73
2022/11/10 06:13:38;;;;;;;;;;;21.30;51.40;;;;;;5039060;28;20055;-73
2022/11/10 06:16:03;;;;;;;;;;;21.30;51.30;;;;;;5044607;28;19916;-73
2022/11/10 06:18:29;;;;;;;;;;;21.30;51.20;;;;;;5041173;28;19917;-73
2022/11/10 06:20:54;;;;;;;;;;;21.40;51.30;;;;;;5025909;28;19920;-72
2022/11/10 06:23:20;;;;;;;;;;;21.40;51.20;;;;;;5040873;28;19917;-72
2022/11/10 06:25:45;;;;;;;;;;;21.40;51.20;;;;;;5035847;28;19924;-73
2022/11/10 06:28:11;;;;;;;;;;;21.30;51.20;;;;;;5036429;28;20283;-72
2022/11/10 06:30:36;;;;;;;;;;;21.40;51.30;;;;;;5024636;28;20288;-72
2022/11/10 06:33:02;;;;;;;;;;;21.30;51.30;;;;;;5025401;28;20398;-72
2022/11/10 06:35:27;;;;;;;;;;;21.30;51.30;;;;;;5028363;28;20003;-73
2022/11/10 06:37:57;;;;;;;;;;;21.30;51.30;;;;;;5029926;28;19936;-72
2022/11/10 06:40:22;;;;;;;;;;;21.30;51.20;;;;;;5030965;28;20550;-73
2022/11/10 06:42:48;;;;;;;;;;;21.30;51.20;;;;;;5026980;28;20432;-73
2022/11/10 06:45:13;;;;;;;;;;;21.30;51.20;;;;;;5031102;28;20299;-73
2022/11/10 06:47:39;;;;;;;;;;;21.30;51.10;;;;;;5030437;28;20428;-73
2022/11/10 06:50:04;;;;;;;;;;;21.30;51.10;;;;;;5047173;28;20004;-73
2022/11/10 06:52:30;;;;;;;;;;;21.30;51.10;;;;;;5046563;28;19928;-73
2022/11/10 06:54:56;;;;;;;;;;;21.30;51.20;;;;;;5045383;28;19913;-72
2022/11/10 06:57:22;;;;;;;;;;;21.30;51.30;;;;;;5030028;28;19928;-73
2022/11/10 06:59:47;;;;;;;;;;;21.30;51.20;;;;;;5044043;28;19913;-73
2022/11/10 07:02:13;;;;;;;;;;;21.30;51.20;;;;;;5027212;28;19917;-73
2022/11/10 07:04:38;;;;;;;;;;;21.20;51.10;;;;;;5028696;28;21602;-73
2022/11/10 07:07:04;;;;;;;;;;;21.20;51.10;;;;;;5044055;28;19917;-73
2022/11/10 07:09:29;;;;;;;;;;;21.20;51.10;;;;;;5032618;28;19917;-73
2022/11/10 07:11:56;;;;;;;;;;;21.20;51.10;;;;;;5046849;28;19921;-73
2022/11/10 07:14:21;;;;;;;;;;;21.20;51.10;;;;;;5044313;28;19913;-73
2022/11/10 07:16:47;;;;;;;;;;;21.20;51.00;;;;;;5046476;28;20003;-73
2022/11/10 07:19:12;;;;;;;;;;;21.20;50.90;;;;;;5044925;28;19971;-73
2022/11/10 07:21:37;;;;;;;;;;;21.20;51.00;;;;;;5033027;28;19917;-73
2022/11/10 07:24:03;;;;;;;;;;;21.20;51.10;;;;;;5046788;28;19923;-73
2022/11/10 07:26:28;;;;;;;;;;;21.20;51.10;;;;;;5029903;28;20015;-73
2022/11/10 07:28:54;;;;;;;;;;;21.20;50.90;;;;;;5028027;28;19921;-73
2022/11/10 07:31:19;;;;;;;;;;;21.20;50.90;;;;;;5031409;28;19954;-72
2022/11/10 07:33:46;;;;;;;;;;;21.20;50.90;;;;;;5051740;28;19913;-74
2022/11/10 07:36:12;;;;;;;;;;;21.20;50.90;;;;;;5047350;28;19932;-73
2022/11/10 07:38:37;;;;;;;;;;;21.20;50.90;;;;;;5046168;28;20304;-73
2022/11/10 07:41:02;;;;;;;;;;;21.20;50.90;;;;;;5031804;28;19912;-73
2022/11/10 07:43:28;;;;;;;;;;;21.20;50.90;;;;;;5029154;28;19941;-72
2022/11/10 07:45:53;;;;;;;;;;;21.20;50.90;;;;;;5033011;28;19944;-73
2022/11/10 07:48:19;;;;;;;;;;;21.20;50.80;;;;;;5031173;28;20321;-73
2022/11/10 07:50:44;;;;;;;;;;;21.30;50.70;;;;;;5030037;28;19960;-72
2022/11/10 07:53:11;;;;;;;;;;;21.30;50.70;;;;;;5044323;28;19921;-73
2022/11/10 07:55:37;;;;;;;;;;;21.30;50.70;;;;;;5049467;28;19920;-74
2022/11/10 07:58:02;;;;;;;;;;;21.30;50.80;;;;;;5029155;28;19967;-72
2022/11/10 08:00:28;;;;;;;;;;;21.30;50.70;;;;;;5027248;28;19913;-73
2022/11/10 08:02:53;;;;;;;;;;;21.30;50.70;;;;;;5039311;28;19959;-73
2022/11/10 08:05:18;;;;;;;;;;;21.40;50.70;;;;;;5044694;28;19927;-73
2022/11/10 08:07:44;;;;;;;;;;;21.40;51.20;;;;;;5028961;28;19917;-72
2022/11/10 08:10:11;;;;;;;;;;;21.50;50.60;;;;;;5028260;28;20024;-74
2022/11/10 08:12:36;;;;;;;;;;;21.50;50.50;;;;;;5045737;28;20448;-75
2022/11/10 08:15:02;;;;;;;;;;;21.50;50.60;;;;;;5028289;28;19939;-74
2022/11/10 08:17:27;;;;;;;;;;;21.50;50.60;;;;;;5026145;28;19928;-73
2022/11/10 08:19:53;;;;;;;;;;;21.40;50.70;;;;;;5033122;28;19917;-72
2022/11/10 08:22:18;;;;;;;;;;;21.40;50.90;;;;;;5041421;28;20296;-72
2022/11/10 08:24:44;;;;;;;;;;;21.40;51.30;;;;;;5051335;28;20395;-74
2022/11/10 08:27:09;;;;;;;;;;;21.40;51.50;;;;;;5035050;28;20284;-74
2022/11/10 08:29:34;;;;;;;;;;;21.60;51.30;;;;;;5032870;28;19924;-73
2022/11/10 08:32:00;;;;;;;;;;;21.80;50.80;;;;;;5032548;28;19920;-73
2022/11/10 08:34:25;;;;;;;;;;;22.00;50.60;;;;;;5046993;28;20011;-74
2022/11/10 08:36:52;;;;;;;;;;;22.00;50.30;;;;;;5015406;28;19920;-73
2022/11/10 08:39:17;;;;;;;;;;;22.00;50.30;;;;;;5053450;28;20352;-73
2022/11/10 08:41:42;;;;;;;;;;;22.00;50.30;;;;;;5034490;28;19924;-74
2022/11/10 08:44:08;;;;;;;;;;;22.10;50.30;;;;;;5047732;28;19920;-73
2022/11/10 08:46:33;;;;;;;;;;;22.20;50.10;;;;;;5037893;28;19917;-73
2022/11/10 08:48:59;;;;;;;;;;;22.20;50.00;;;;;;5032389;28;19948;-73
2022/11/10 08:51:24;;;;;;;;;;;22.20;50.00;;;;;;5036743;28;19967;-73
2022/11/10 08:53:50;;;;;;;;;;;22.20;50.10;;;;;;5052027;28;20378;-72
2022/11/10 08:56:15;;;;;;;;;;;22.20;50.10;;;;;;5052271;28;19913;-73
2022/11/10 08:58:41;;;;;;;;;;;22.30;49.90;;;;;;5032805;28;19913;-73
2022/11/10 09:01:07;;;;;;;;;;;22.40;49.70;;;;;;5045100;28;19958;-73
2022/11/10 09:03:32;;;;;;;;;;;22.50;49.50;;;;;;5032318;28;19912;-73
2022/11/10 09:05:58;;;;;;;;;;;22.50;49.30;;;;;;5030722;28;19919;-74
2022/11/10 09:08:23;;;;;;;;;;;22.60;49.20;;;;;;5030866;28;20440;-74
2022/11/10 09:10:50;;;;;;;;;;;22.70;49.20;;;;;;5033313;28;20308;-73
2022/11/10 09:13:15;;;;;;;;;;;22.70;49.30;;;;;;5049444;28;20478;-72
2022/11/10 09:15:41;;;;;;;;;;;22.60;49.40;;;;;;5030262;28;19920;-72
2022/11/10 09:18:06;;;;;;;;;;;22.50;49.60;;;;;;5033721;28;19993;-74
2022/11/10 09:20:32;;;;;;;;;;;22.50;49.80;;;;;;5034102;28;19918;-72
2022/11/10 09:23:11;;;;;;;;;;;22.50;49.80;;;;;;5032501;28;19962;-72
2022/11/10 09:25:37;;;;;;;;;;;22.50;49.60;;;;;;5051436;28;19920;-73
2022/11/10 09:28:02;;;;;;;;;;;22.60;49.60;;;;;;5029277;28;20000;-74
2022/11/10 09:30:28;;;;;;;;;;;22.60;49.60;;;;;;5011863;28;19936;-73
2022/11/10 09:32:53;;;;;;;;;;;22.50;49.70;;;;;;5051076;28;19916;-73
2022/11/10 09:35:19;;;;;;;;;;;22.40;49.80;;;;;;5031997;28;20031;-73
2022/11/10 09:37:44;;;;;;;;;;;22.50;49.80;;;;;;5051677;28;19932;-73
2022/11/10 09:40:23;;;;;;;;;;;22.50;49.70;;;;;;5031440;28;19916;-72
2022/11/10 09:42:54;;;;;;;;;;;22.60;49.60;;;;;;5031111;28;22590;-73
2022/11/10 09:45:26;;;;;;;;;;;22.80;49.40;;;;;;5029864;28;19917;-73
2022/11/10 09:48:06;;;;;;;;;;;22.80;49.20;;;;;;5030856;28;20349;-74
2022/11/10 09:50:35;;;;;;;;;;;22.80;49.10;;;;;;5033166;28;20327;-73
2022/11/10 09:53:00;;;;;;;;;;;22.70;49.30;;;;;;5031658;28;19964;-72
2022/11/10 09:55:35;;;;;;;;;;;22.70;49.60;;;;;;5041804;28;19955;-73
2022/11/10 09:58:00;;;;;;;;;;;22.60;49.60;;;;;;5048623;28;19942;-72
2022/11/10 10:00:26;;;;;;;;;;;22.70;49.70;;;;;;5033912;28;20360;-72
2022/11/10 10:02:53;;;;;;;;;;;22.70;49.50;;;;;;5032458;28;20359;-72
2022/11/10 10:05:28;;;;;;;;;;;22.70;49.50;;;;;;5029805;28;19950;-74
2022/11/10 10:08:05;;;;;;;;;;;22.70;49.70;;;;;;5032347;28;19975;-74
2022/11/10 10:10:31;;;;;;;;;;;22.60;49.80;;;;;;5050074;28;19917;-72
2022/11/10 10:12:59;;;;;;;;;;;22.60;50.00;;;;;;5052044;28;20357;-73
2022/11/10 10:15:43;;;;;;;;;;;22.60;49.80;;;;;;5054208;28;19959;-73
2022/11/10 10:18:13;;;;;;;;;;;22.70;49.70;;;;;;5054731;28;19999;-73
2022/11/10 10:20:46;;;;;;;;;;;22.70;49.60;;;;;;5043842;28;19944;-73
2022/11/10 10:23:12;;;;;;;;;;;22.70;49.60;;;;;;5031540;28;19967;-73
2022/11/10 10:25:38;;;;;;;;;;;22.60;49.60;;;;;;5054326;28;20387;-73
2022/11/10 10:28:19;;;;;;;;;;;22.60;49.90;;;;;;5027623;28;20654;-73
2022/11/10 10:30:44;;;;;;;;;;;22.60;50.00;;;;;;5048153;28;20022;-73
2022/11/10 10:33:17;;;;;;;;;;;22.60;49.90;;;;;;5051752;28;19952;-74
2022/11/10 10:35:43;;;;;;;;;;;22.60;49.80;;;;;;5037161;28;19995;-73
2022/11/10 10:38:11;;;;;;;;;;;22.60;50.00;;;;;;5020857;28;19971;-73
2022/11/10 10:40:36;;;;;;;;;;;22.50;50.00;;;;;;5044747;28;19984;-73
2022/11/10 10:43:03;;;;;;;;;;;22.50;50.10;;;;;;5037324;28;20380;-73
2022/11/10 10:45:29;;;;;;;;;;;22.60;50.70;;;;;;5033537;28;19974;-72
2022/11/10 10:47:55;;;;;;;;;;;22.70;49.90;;;;;;5042122;28;19921;-74
2022/11/10 10:50:33;;;;;;;;;;;22.80;49.70;;;;;;5046651;28;20008;-74
2022/11/10 10:53:12;;;;;;;;;;;22.90;49.50;;;;;;5052034;28;19924;-72
2022/11/10 10:55:38;;;;;;;;;;;23.00;49.20;;;;;;5037341;28;20300;-72
2022/11/10 10:58:05;;;;;;;;;;;23.00;49.10;;;;;;5031108;28;19921;-73
2022/11/10 11:00:30;;;;;;;;;;;22.90;49.20;;;;;;5033599;28;19913;-73
2022/11/10 11:03:03;;;;;;;;;;;22.80;49.60;;;;;;5027640;28;19920;-73
2022/11/10 11:05:29;;;;;;;;;;;22.70;50.00;;;;;;5035525;28;19916;-73
2022/11/10 11:07:54;;;;;;;;;;;22.70;50.20;;;;;;5029203;28;19921;-73
2022/11/10 11:10:24;;;;;;;;;;;22.70;50.80;;;;;;5034422;28;19913;-72
2022/11/10 11:12:49;;;;;;;;;;;22.80;50.10;;;;;;5049163;28;19913;-73
2022/11/10 11:15:20;;;;;;;;;;;22.80;50.00;;;;;;5033864;28;19917;-73
2022/11/10 11:17:57;;;;;;;;;;;22.80;49.90;;;;;;5046767;28;19922;-72
2022/11/10 11:20:26;;;;;;;;;;;22.70;50.10;;;;;;5049266;28;19966;-73
2022/11/10 11:22:55;;;;;;;;;;;22.70;50.20;;;;;;5029623;28;20003;-73
2022/11/10 11:25:33;;;;;;;;;;;22.70;50.10;;;;;;5048850;28;19956;-73
2022/11/10 11:28:18;;;;;;;;;;;22.80;50.10;;;;;;5032746;28;19975;-73
2022/11/10 11:30:43;;;;;;;;;;;22.80;50.00;;;;;;5049234;28;20015;-72
2022/11/10 11:33:12;;;;;;;;;;;22.80;50.10;;;;;;5045090;28;20460;-73
2022/11/10 11:35:42;;;;;;;;;;;22.70;50.20;;;;;;5047521;28;19920;-73
2022/11/10 11:38:11;;;;;;;;;;;22.70;50.40;;;;;;5041147;28;19917;-73
2022/11/10 11:40:47;;;;;;;;;;;22.70;50.50;;;;;;5050113;28;19920;-74
2022/11/10 11:43:29;;;;;;;;;;;22.70;50.30;;;;;;5049100;28;19909;-73
2022/11/10 11:46:04;;;;;;;;;;;22.90;50.30;;;;;;5028113;28;20023;-74
2022/11/10 11:48:46;;;;;;;;;;;23.00;50.10;;;;;;5034352;28;19921;-72
2022/11/10 11:51:15;;;;;;;;;;;23.00;49.90;;;;;;5029035;28;20012;-74
2022/11/10 11:54:01;;;;;;;;;;;22.90;49.90;;;;;;5037521;28;20019;-74
2022/11/10 11:56:30;;;;;;;;;;;22.80;50.00;;;;;;5028542;28;19915;-74
2022/11/10 11:59:02;;;;;;;;;;;22.70;50.20;;;;;;5035527;28;19939;-73
2022/11/10 12:01:31;;;;;;;;;;;22.70;50.20;;;;;;5036318;28;19909;-74
2022/11/10 12:03:56;;;;;;;;;;;22.80;50.20;;;;;;5029617;28;19917;-74
2022/11/10 12:06:38;;;;;;;;;;;22.90;50.10;;;;;;5043051;28;20159;-73
2022/11/10 12:09:11;;;;;;;;;;;23.00;49.80;;;;;;5044139;28;19921;-73
2022/11/10 12:11:55;;;;;;;;;;;23.10;49.70;;;;;;5029704;28;19959;-73
2022/11/10 12:14:32;;;;;;;;;;;23.00;49.70;;;;;;5043604;28;19929;-74
2022/11/10 12:16:57;;;;;;;;;;;22.90;49.90;;;;;;5027324;28;19943;-74
2022/11/10 12:19:31;;;;;;;;;;;22.80;50.00;;;;;;5044580;28;20413;-73
2022/11/10 12:22:09;;;;;;;;;;;22.80;50.20;;;;;;5039628;28;20360;-73
2022/11/10 12:24:38;;;;;;;;;;;22.80;50.10;;;;;;5035826;28;19913;-74
2022/11/10 12:27:23;;;;;;;;;;;22.90;50.00;;;;;;5030056;28;19917;-74
2022/11/10 12:30:00;;;;;;;;;;;22.90;50.10;;;;;;5042406;28;19999;-72
2022/11/10 12:32:36;;;;;;;;;;;22.80;50.10;;;;;;5019061;28;19947;-73
2022/11/10 12:35:06;;;;;;;;;;;22.70;50.20;;;;;;5002593;28;19932;-73
2022/11/10 12:37:39;;;;;;;;;;;22.70;50.30;;;;;;5021862;28;19925;-73
2022/11/10 12:40:11;;;;;;;;;;;22.70;50.30;;;;;;5025563;28;19921;-73
2022/11/10 12:42:37;;;;;;;;;;;22.80;50.20;;;;;;5009258;28;19927;-74
2022/11/10 12:45:03;;;;;;;;;;;22.80;50.10;;;;;;5039794;28;19913;-73
2022/11/10 12:47:47;;;;;;;;;;;22.80;50.20;;;;;;5019979;28;20333;-74
2022/11/10 12:50:31;;;;;;;;;;;22.70;50.30;;;;;;5028738;28;19924;-73
2022/11/10 12:53:01;;;;;;;;;;;22.60;50.50;;;;;;5044033;28;20369;-73
2022/11/10 12:55:53;;;;;;;;;;;22.60;50.60;;;;;;5027367;28;20007;-74
2022/11/10 12:58:19;;;;;;;;;;;22.60;50.70;;;;;;5004814;28;19917;-73
2022/11/10 13:00:54;;;;;;;;;;;22.60;50.70;;;;;;5042554;28;19940;-74
2022/11/10 13:03:24;;;;;;;;;;;22.50;50.80;;;;;;5042525;28;19912;-72
2022/11/10 13:05:53;;;;;;;;;;;22.50;50.80;;;;;;5008286;28;19996;-74
2022/11/10 13:08:24;;;;;;;;;;;22.50;50.80;;;;;;5026259;28;19924;-73
2022/11/10 13:10:59;;;;;;;;;;;22.60;51.00;;;;;;5046515;28;19917;-74
2022/11/10 13:13:25;;;;;;;;;;;22.60;51.00;;;;;;5030379;28;19917;-74
2022/11/10 13:15:51;;;;;;;;;;;22.60;50.70;;;;;;5030371;28;19920;-74
2022/11/10 13:18:25;;;;;;;;;;;22.70;50.60;;;;;;5044937;28;20361;-74
2022/11/10 13:20:51;;;;;;;;;;;22.70;50.60;;;;;;5048147;28;19959;-74
2022/11/10 13:23:20;;;;;;;;;;;22.80;50.60;;;;;;5030162;28;19913;-74
2022/11/10 13:25:56;;;;;;;;;;;22.80;50.70;;;;;;5027896;28;20311;-74
2022/11/10 13:28:51;;;;;;;;;;;22.80;50.60;;;;;;5023936;28;20354;-74
2022/11/10 13:31:26;;;;;;;;;;;22.80;50.50;;;;;;5017805;28;19913;-72
2022/11/10 13:34:04;;;;;;;;;;;22.80;50.40;;;;;;5048652;28;19916;-73
2022/11/10 13:36:38;;;;;;;;;;;22.80;50.30;;;;;;5029503;28;19925;-72
2022/11/10 13:39:19;;;;;;;;;;;22.80;50.30;;;;;;5027152;28;19924;-72
2022/11/10 13:42:02;;;;;;;;;;;22.90;50.40;;;;;;5030568;28;20376;-73
2022/11/10 13:44:32;;;;;;;;;;;22.90;50.30;;;;;;5028966;28;19913;-73
2022/11/10 13:47:06;;;;;;;;;;;22.90;50.30;;;;;;5025255;28;19958;-73
2022/11/10 13:49:34;;;;;;;;;;;23.00;50.30;;;;;;5024785;28;19920;-73
2022/11/10 13:52:05;;;;;;;;;;;23.00;50.30;;;;;;5029415;28;19924;-73
2022/11/10 13:54:49;;;;;;;;;;;23.00;50.40;;;;;;5010050;28;19966;-72
2022/11/10 13:57:28;;;;;;;;;;;23.00;50.40;;;;;;5028710;28;19970;-73
2022/11/10 13:59:55;;;;;;;;;;;23.00;50.50;;;;;;5028473;28;20373;-73
2022/11/10 14:02:33;;;;;;;;;;;23.00;50.60;;;;;;5029732;28;19959;-73
2022/11/10 14:05:05;;;;;;;;;;;23.00;50.60;;;;;;5024534;28;20436;-73
2022/11/10 14:07:35;;;;;;;;;;;23.00;50.60;;;;;;5023819;28;19928;-73
2022/11/10 14:10:04;;;;;;;;;;;23.00;50.60;;;;;;5016828;28;19913;-73
2022/11/10 14:12:34;;;;;;;;;;;23.00;50.60;;;;;;5030480;28;19920;-74
2022/11/10 14:15:01;;;;;;;;;;;23.10;50.70;;;;;;5028059;28;19924;-73
2022/11/10 14:17:31;;;;;;;;;;;23.10;50.70;;;;;;5022166;28;19913;-73
2022/11/10 14:19:58;;;;;;;;;;;23.10;50.60;;;;;;5016826;28;19917;-74
2022/11/10 14:22:34;;;;;;;;;;;23.20;50.60;;;;;;5029211;28;19917;-73
2022/11/10 14:25:01;;;;;;;;;;;23.20;50.60;;;;;;5026224;28;19946;-74
2022/11/10 14:27:27;;;;;;;;;;;23.20;51.30;;;;;;5023565;28;19921;-73
2022/11/10 14:30:03;;;;;;;;;;;23.20;50.60;;;;;;5026089;28;19917;-73
2022/11/10 14:32:28;;;;;;;;;;;23.20;50.60;;;;;;5024653;28;20027;-73